createdAt,value
2024-04-23T00:05:16.232Z,72.00
2024-04-23T00:07:43.693Z,69.37
2024-04-23T00:10:11.118Z,68.48
2024-04-23T00:12:38.342Z,68.57
2024-04-23T00:15:06.517Z,69.02
2024-04-23T00:17:33.818Z,69.89
2024-04-23T00:20:01.457Z,70.50
2024-04-23T00:22:28.796Z,71.23
2024-04-23T00:24:56.338Z,70.29
2024-04-23T00:27:23.645Z,68.21
2024-04-23T00:37:29.326Z,69.60
2024-04-23T00:47:34.566Z,67.78
2024-04-23T00:50:02.094Z,66.83
2024-04-23T00:52:29.568Z,66.49
2024-04-23T01:02:40.276Z,69.44
2024-04-23T01:05:07.579Z,69.53
2024-04-23T01:07:34.903Z,67.83
2024-04-23T01:10:02.292Z,68.01
2024-04-23T01:20:13.531Z,68.28
2024-04-23T01:23:15.987Z,69.07
2024-04-23T01:25:45.371Z,67.23
2024-04-23T01:28:13.297Z,64.91
2024-04-23T01:30:40.609Z,64.86
2024-04-23T01:33:08.220Z,65.38
2024-04-23T01:35:35.523Z,65.91
2024-04-23T01:45:17.932Z,67.93
2024-04-23T01:55:29.015Z,66.91
2024-04-23T01:57:56.663Z,67.66
2024-04-23T02:00:24.851Z,68.42
2024-04-23T02:02:52.785Z,69.30
2024-04-23T02:12:58.715Z,66.36
2024-04-23T02:15:25.982Z,66.92
2024-04-23T02:17:53.363Z,67.60
2024-04-23T02:20:21.131Z,68.19
2024-04-23T02:22:48.480Z,69.51
2024-04-23T02:25:15.899Z,68.87
2024-04-23T02:27:43.144Z,66.63
2024-04-23T02:30:11.315Z,66.08
2024-04-23T02:32:38.772Z,66.69
2024-04-23T02:35:06.281Z,67.86
2024-04-23T02:37:33.699Z,68.90
2024-04-23T02:40:03.535Z,69.70
2024-04-23T02:42:32.801Z,71.15
2024-04-23T02:45:00.217Z,69.89
2024-04-23T02:47:27.719Z,68.20
2024-04-23T02:57:39.492Z,69.39
2024-04-23T03:00:08.054Z,69.81
2024-04-23T03:02:35.576Z,70.58
2024-04-23T03:05:04.815Z,69.38
2024-04-23T03:07:32.401Z,66.99
2024-04-23T03:10:00.083Z,66.49
2024-04-23T03:12:27.697Z,67.43
2024-04-23T03:14:55.256Z,67.85
2024-04-23T03:17:22.717Z,68.20
2024-04-23T03:19:50.580Z,68.69
2024-04-23T03:22:17.836Z,69.37
2024-04-23T03:24:45.169Z,68.87
2024-04-23T03:27:12.635Z,67.01
2024-04-23T03:37:24.897Z,66.82
2024-04-23T03:39:52.356Z,67.91
2024-04-23T03:42:19.906Z,68.33
2024-04-23T03:44:48.190Z,67.22
2024-04-23T03:47:15.934Z,65.37
2024-04-23T03:49:43.406Z,64.83
2024-04-23T03:59:50.677Z,65.96
2024-04-23T04:02:36.899Z,66.56
2024-04-23T04:12:45.335Z,62.21
2024-04-23T04:15:12.749Z,62.04
2024-04-23T04:17:40.491Z,63.31
2024-04-23T04:20:08.332Z,64.68
2024-04-23T04:22:35.662Z,64.16
2024-04-23T04:32:46.198Z,65.60
2024-04-23T04:35:13.712Z,64.78
2024-04-23T04:37:41.286Z,62.71
2024-04-23T04:40:08.958Z,62.11
2024-04-23T04:42:36.428Z,61.89
2024-04-23T04:45:05.066Z,63.29
2024-04-23T04:47:32.724Z,63.71
2024-04-23T04:50:00.909Z,65.28
2024-04-23T04:54:41.999Z,66.63
2024-04-23T04:57:09.650Z,66.38
2024-04-23T04:59:37.113Z,65.53
2024-04-23T05:02:04.599Z,62.61
2024-04-23T05:04:31.991Z,61.31
2024-04-23T05:06:59.491Z,61.59
2024-04-23T05:09:26.693Z,61.60
2024-04-23T05:11:53.904Z,62.24
2024-04-23T05:14:21.148Z,63.54
2024-04-23T05:16:48.418Z,63.35
2024-04-23T05:19:15.646Z,63.73
2024-04-23T05:21:42.865Z,64.25
2024-04-23T05:24:10.083Z,63.90
2024-04-23T05:26:37.279Z,60.95
2024-04-23T05:29:04.511Z,61.23
2024-04-23T05:31:50.562Z,59.54
2024-04-23T05:34:17.800Z,61.02
2024-04-23T05:36:45.064Z,60.93
2024-04-23T05:39:12.266Z,60.28
2024-04-23T05:41:39.453Z,60.77
2024-04-23T05:44:06.849Z,61.38
2024-04-23T05:46:34.198Z,61.73
2024-04-23T05:49:38.996Z,61.70
2024-04-23T05:53:03.001Z,61.42
2024-04-23T05:55:49.466Z,62.69
2024-04-23T05:58:16.761Z,61.25
2024-04-23T06:00:44.100Z,58.80
2024-04-23T06:03:11.473Z,57.65
2024-04-23T06:05:38.652Z,57.71
2024-04-23T06:08:06.457Z,58.91
2024-04-23T06:10:33.798Z,59.40
2024-04-23T06:13:00.991Z,60.23
2024-04-23T06:15:28.311Z,60.33
2024-04-23T06:17:55.665Z,60.76
2024-04-23T06:20:22.873Z,60.91
2024-04-23T06:22:53.513Z,62.59
2024-04-23T06:25:21.128Z,61.68
2024-04-23T06:27:48.373Z,61.80
2024-04-23T06:30:16.299Z,61.77
2024-04-23T06:32:43.787Z,60.72
2024-04-23T06:35:11.277Z,61.01
2024-04-23T06:37:38.816Z,59.71
2024-04-23T06:40:09.871Z,57.64
2024-04-23T06:42:38.075Z,55.59
2024-04-23T06:45:05.732Z,54.64
2024-04-23T06:47:34.179Z,54.57
2024-04-23T06:50:01.721Z,55.34
2024-04-23T06:52:29.328Z,55.06
2024-04-23T06:54:56.598Z,53.90
2024-04-23T06:57:23.794Z,55.57
2024-04-23T06:59:51.039Z,55.45
2024-04-23T07:02:18.692Z,55.52
2024-04-23T07:04:46.282Z,54.54
2024-04-23T07:07:13.555Z,55.06
2024-04-23T07:09:40.875Z,57.77
2024-04-23T07:12:08.305Z,56.14
2024-04-23T07:14:35.710Z,55.77
2024-04-23T07:17:03.195Z,56.14
2024-04-23T07:19:30.569Z,56.16
2024-04-23T07:21:57.797Z,55.36
2024-04-23T07:24:24.993Z,53.97
2024-04-23T07:26:54.633Z,54.48
2024-04-23T07:29:21.918Z,52.92
2024-04-23T07:31:49.254Z,51.55
2024-04-23T07:34:16.609Z,52.20
2024-04-23T07:36:46.649Z,52.15
2024-04-23T07:39:14.940Z,52.10
2024-04-23T07:41:42.266Z,51.16
2024-04-23T07:44:10.004Z,51.19
2024-04-23T07:46:37.619Z,50.73
2024-04-23T07:49:04.908Z,50.02
2024-04-23T07:51:33.630Z,50.55
2024-04-23T07:54:00.985Z,50.18
2024-04-23T07:56:28.191Z,49.89
2024-04-23T07:58:55.405Z,50.27
2024-04-23T08:01:22.596Z,49.39
2024-04-23T08:03:50.022Z,49.75
2024-04-23T08:06:17.279Z,49.68
2024-04-23T08:08:44.684Z,49.45
2024-04-23T08:11:12.148Z,48.55
2024-04-23T08:13:40.634Z,48.98
2024-04-23T08:16:08.420Z,48.44
2024-04-23T08:18:36.018Z,48.22
2024-04-23T08:21:07.069Z,47.63
2024-04-23T08:23:34.543Z,48.72
2024-04-23T08:26:09.869Z,49.26
2024-04-23T08:28:37.259Z,50.02
2024-04-23T08:31:04.959Z,50.02
2024-04-23T08:33:32.881Z,50.16
2024-04-23T08:36:00.088Z,50.80
2024-04-23T08:38:28.301Z,50.43
2024-04-23T08:40:56.587Z,50.19
2024-04-23T08:43:27.298Z,50.16
2024-04-23T08:45:55.804Z,49.98
2024-04-23T08:48:23.047Z,49.72
2024-04-23T08:50:50.294Z,49.88
2024-04-23T08:53:17.502Z,50.37
2024-04-23T08:55:45.463Z,50.14
2024-04-23T08:58:12.694Z,50.07
2024-04-23T09:00:49.185Z,49.91
2024-04-23T09:03:20.607Z,49.28
2024-04-23T09:05:47.802Z,49.17
2024-04-23T09:08:16.662Z,49.44
2024-04-23T09:10:44.943Z,48.58
2024-04-23T09:13:12.977Z,49.65
2024-04-23T09:15:40.413Z,48.70
2024-04-23T09:18:08.407Z,48.86
2024-04-23T09:20:35.764Z,49.14
2024-04-23T09:23:03.131Z,49.33
2024-04-23T09:25:35.505Z,47.52
2024-04-23T09:28:03.319Z,47.36
2024-04-23T09:30:31.221Z,47.76
2024-04-23T09:33:03.725Z,47.49
2024-04-23T09:35:31.166Z,45.25
2024-04-23T09:37:58.404Z,44.23
2024-04-23T09:40:25.807Z,44.87
2024-04-23T09:42:56.163Z,44.59
2024-04-23T09:45:26.298Z,43.45
2024-04-23T09:47:53.600Z,42.28
2024-04-23T09:50:21.217Z,42.70
2024-04-23T09:52:48.962Z,42.03
2024-04-23T09:55:17.487Z,42.65
2024-04-23T09:57:45.291Z,42.95
2024-04-23T10:00:12.851Z,44.20
2024-04-23T10:02:40.581Z,44.70
2024-04-23T10:05:11.484Z,44.39
2024-04-23T10:07:58.100Z,44.75
2024-04-23T10:10:30.889Z,44.12
2024-04-23T10:12:58.395Z,44.11
2024-04-23T10:15:30.510Z,46.12
2024-04-23T10:18:05.187Z,45.45
2024-04-23T10:20:39.130Z,45.19
2024-04-23T10:23:07.017Z,46.08
2024-04-23T10:25:37.629Z,47.31
2024-04-23T10:28:05.497Z,48.04
2024-04-23T10:30:32.936Z,48.40
2024-04-23T10:33:00.441Z,49.00
2024-04-23T10:35:27.858Z,49.22
2024-04-23T10:37:55.233Z,49.73
2024-04-23T10:40:22.785Z,49.24
2024-04-23T10:42:50.202Z,49.84
2024-04-23T10:45:17.657Z,49.10
2024-04-23T10:47:53.522Z,48.51
2024-04-23T10:50:29.983Z,47.88
2024-04-23T10:52:57.892Z,46.84
2024-04-23T10:55:26.290Z,47.53
2024-04-23T10:57:57.494Z,46.83
2024-04-23T11:00:33.116Z,46.72
2024-04-23T11:03:00.778Z,46.77
2024-04-23T11:05:32.310Z,45.36
2024-04-23T11:08:07.888Z,45.30
2024-04-23T11:10:50.458Z,45.12
2024-04-23T11:13:28.756Z,45.96
2024-04-23T11:16:01.807Z,45.14
2024-04-23T11:18:40.076Z,45.16
2024-04-23T11:21:10.209Z,45.63
2024-04-23T11:23:43.781Z,45.77
2024-04-23T11:26:14.156Z,45.94
2024-04-23T11:28:43.957Z,46.03
2024-04-23T11:31:14.076Z,45.44
2024-04-23T11:33:44.352Z,45.66
2024-04-23T11:36:14.064Z,45.34
2024-04-23T11:38:44.770Z,45.03
2024-04-23T11:41:19.280Z,45.06
2024-04-23T11:43:49.248Z,43.53
2024-04-23T11:46:19.422Z,44.46
2024-04-23T11:48:49.844Z,43.89
2024-04-23T11:51:19.970Z,44.48
2024-04-23T11:53:50.791Z,44.50
2024-04-23T11:56:21.788Z,45.23
2024-04-23T11:58:53.815Z,44.31
2024-04-23T12:01:24.786Z,45.00
2024-04-23T12:03:54.820Z,45.08
2024-04-23T12:06:25.240Z,44.71
2024-04-23T12:08:55.868Z,45.01
2024-04-23T12:18:59.043Z,44.98
2024-04-23T12:21:26.405Z,44.83
2024-04-23T12:23:56.658Z,43.83
2024-04-23T12:26:24.688Z,44.39
2024-04-23T12:28:55.193Z,44.95
2024-04-23T12:31:26.673Z,43.97
2024-04-23T12:34:00.600Z,42.48
2024-04-23T12:36:28.453Z,42.68
2024-04-23T12:38:55.903Z,43.35
2024-04-23T12:41:25.197Z,42.93
2024-04-23T12:43:52.703Z,43.09
2024-04-23T12:46:20.134Z,44.06
2024-04-23T12:48:50.618Z,44.74
2024-04-23T12:51:18.000Z,45.20
2024-04-23T12:53:45.359Z,45.08
2024-04-23T12:56:13.154Z,45.34
2024-04-23T12:58:40.712Z,45.84
2024-04-23T13:01:09.421Z,45.61
2024-04-23T13:03:36.949Z,45.85
2024-04-23T13:06:04.508Z,45.96
2024-04-23T13:08:35.666Z,46.09
2024-04-23T13:11:03.268Z,46.60
2024-04-23T13:13:30.964Z,47.40
2024-04-23T13:15:58.623Z,48.00
2024-04-23T13:18:26.069Z,48.22
2024-04-23T13:20:53.671Z,48.56
2024-04-23T13:23:21.225Z,48.17
2024-04-23T13:25:48.592Z,48.36
2024-04-23T13:28:15.990Z,48.12
2024-04-23T13:30:43.368Z,48.17
2024-04-23T13:33:10.773Z,48.13
2024-04-23T13:35:38.204Z,48.60
2024-04-23T13:38:05.536Z,49.15
2024-04-23T13:40:33.030Z,49.02
2024-04-23T13:43:00.357Z,49.62
2024-04-23T13:45:27.691Z,50.44
2024-04-23T13:47:55.128Z,50.71
2024-04-23T13:50:22.609Z,51.20
2024-04-23T13:52:50.311Z,51.58
2024-04-23T13:55:17.872Z,51.37
2024-04-23T13:57:45.187Z,51.60
2024-04-23T14:00:14.609Z,50.67
2024-04-23T14:02:42.181Z,50.62
2024-04-23T14:05:09.704Z,51.04
2024-04-23T14:07:39.686Z,50.18
2024-04-23T14:10:07.483Z,51.24
2024-04-23T14:12:38.083Z,50.20
2024-04-23T14:15:06.128Z,49.71
2024-04-23T14:17:33.456Z,50.63
2024-04-23T14:20:01.045Z,50.42
2024-04-23T14:22:28.455Z,50.23
2024-04-23T14:24:56.751Z,50.87
2024-04-23T14:27:24.110Z,51.40
2024-04-23T14:29:51.495Z,50.99
2024-04-23T14:32:22.832Z,51.00
2024-04-23T14:34:50.878Z,50.75
2024-04-23T14:37:18.314Z,50.95
2024-04-23T14:39:45.677Z,50.89
2024-04-23T14:42:13.029Z,51.81
2024-04-23T14:44:40.380Z,51.57
2024-04-23T14:47:09.391Z,51.70
2024-04-23T14:49:36.863Z,51.89
2024-04-23T14:52:04.686Z,52.22
2024-04-23T14:54:32.160Z,52.20
2024-04-23T14:56:59.438Z,52.04
2024-04-23T14:59:26.867Z,52.65
2024-04-23T15:01:56.313Z,52.70
2024-04-23T15:04:23.749Z,52.07
2024-04-23T15:06:51.182Z,52.16
2024-04-23T15:09:18.564Z,52.21
2024-04-23T15:11:46.837Z,51.89
2024-04-23T15:14:17.828Z,52.25
2024-04-23T15:16:45.865Z,52.15
2024-04-23T15:19:13.380Z,52.20
2024-04-23T15:21:40.621Z,52.65
2024-04-23T15:24:07.821Z,53.03
2024-04-23T15:26:35.007Z,52.86
2024-04-23T15:29:02.252Z,53.25
2024-04-23T15:31:29.427Z,53.20
2024-04-23T15:33:56.691Z,53.17
2024-04-23T15:36:29.444Z,54.61
2024-04-23T15:38:58.506Z,54.71
2024-04-23T15:41:25.791Z,54.75
2024-04-23T15:43:53.359Z,54.80
2024-04-23T15:46:26.885Z,55.28
2024-04-23T15:48:58.244Z,55.44
2024-04-23T15:51:25.607Z,55.47
2024-04-23T15:53:52.973Z,54.91
2024-04-23T15:56:20.329Z,54.63
2024-04-23T15:58:47.593Z,55.32
2024-04-23T16:01:14.862Z,55.69
2024-04-23T16:03:42.514Z,55.96
2024-04-23T16:06:17.394Z,55.92
2024-04-23T16:08:45.000Z,56.61
2024-04-23T16:11:12.335Z,55.97
2024-04-23T16:13:39.977Z,56.61
2024-04-23T16:16:07.305Z,56.16
2024-04-23T16:18:36.846Z,56.63
2024-04-23T16:21:07.459Z,56.09
2024-04-23T16:23:35.804Z,54.91
2024-04-23T16:26:04.388Z,54.04
2024-04-23T16:28:31.634Z,54.54
2024-04-23T16:31:06.743Z,55.31
2024-04-23T16:33:34.930Z,56.21
2024-04-23T16:36:06.348Z,56.42
2024-04-23T16:38:37.492Z,56.82
2024-04-23T16:41:05.029Z,57.38
2024-04-23T16:43:32.413Z,57.29
2024-04-23T16:46:04.022Z,57.59
2024-04-23T16:48:32.727Z,57.77
2024-04-23T16:51:00.075Z,58.35
2024-04-23T16:53:29.174Z,57.63
2024-04-23T16:55:57.094Z,58.55
2024-04-23T16:58:24.324Z,59.37
2024-04-23T17:00:51.600Z,58.62
2024-04-23T17:03:18.976Z,57.13
2024-04-23T17:05:47.022Z,58.00
2024-04-23T17:08:14.411Z,58.60
2024-04-23T17:10:46.028Z,57.88
2024-04-23T17:13:14.424Z,58.69
2024-04-23T17:15:43.404Z,59.44
2024-04-23T17:18:10.804Z,59.56
2024-04-23T17:20:38.129Z,60.18
2024-04-23T17:23:05.446Z,60.28
2024-04-23T17:25:36.695Z,60.27
2024-04-23T17:28:04.505Z,61.73
2024-04-23T17:30:31.737Z,60.77
2024-04-23T17:32:59.242Z,58.55
2024-04-23T17:35:26.606Z,57.33
2024-04-23T17:37:53.816Z,57.68
2024-04-23T17:40:21.038Z,59.14
2024-04-23T17:42:50.582Z,59.70
2024-04-23T17:45:17.817Z,60.06
2024-04-23T17:47:45.211Z,61.40
2024-04-23T17:50:13.056Z,62.58
2024-04-23T17:52:40.300Z,62.58
2024-04-23T17:55:08.387Z,63.71
2024-04-23T17:57:35.880Z,62.28
2024-04-23T18:00:06.192Z,61.14
2024-04-23T18:02:40.061Z,59.89
2024-04-23T18:05:07.964Z,59.35
2024-04-23T18:07:35.299Z,59.25
2024-04-23T18:10:02.821Z,60.21
2024-04-23T18:12:30.054Z,60.86
2024-04-23T18:14:58.004Z,61.60
2024-04-23T18:17:25.562Z,63.13
2024-04-23T18:19:52.959Z,62.33
2024-04-23T18:22:20.443Z,65.19
2024-04-23T18:24:47.676Z,63.66
2024-04-23T18:27:16.698Z,61.47
2024-04-23T18:29:43.921Z,60.46
2024-04-23T18:32:11.410Z,61.06
2024-04-23T18:34:38.812Z,61.95
2024-04-23T18:37:06.049Z,62.21
2024-04-23T18:39:33.375Z,62.76
2024-04-23T18:42:01.014Z,62.63
2024-04-23T18:44:28.254Z,64.23
2024-04-23T18:46:56.031Z,65.71
2024-04-23T18:49:24.289Z,64.04
2024-04-23T18:51:52.054Z,61.50
2024-04-23T18:54:19.378Z,60.65
2024-04-23T18:56:46.627Z,62.14
2024-04-23T18:59:13.949Z,62.63
2024-04-23T19:01:41.420Z,63.28
2024-04-23T19:04:08.701Z,63.70
2024-04-23T19:06:35.969Z,64.03
2024-04-23T19:09:03.353Z,64.13
2024-04-23T19:11:32.471Z,65.37
2024-04-23T19:14:10.739Z,63.73
2024-04-23T19:16:45.524Z,61.47
2024-04-23T19:19:13.075Z,60.80
2024-04-23T19:21:40.445Z,61.16
2024-04-23T19:24:07.897Z,61.22
2024-04-23T19:26:35.117Z,62.14
2024-04-23T19:29:02.390Z,62.61
2024-04-23T19:31:29.780Z,63.84
2024-04-23T19:33:57.016Z,64.52
2024-04-23T19:36:26.559Z,63.54
2024-04-23T19:38:53.832Z,61.41
2024-04-23T19:41:21.312Z,60.48
2024-04-23T19:43:52.951Z,61.24
2024-04-23T19:46:23.936Z,61.58
2024-04-23T19:48:51.422Z,61.84
2024-04-23T19:51:21.352Z,62.83
2024-04-23T19:53:51.651Z,62.93
2024-04-23T19:56:34.651Z,64.69
2024-04-23T19:59:03.756Z,62.43
2024-04-23T20:01:38.967Z,60.22
2024-04-23T20:04:06.304Z,60.49
2024-04-23T20:06:33.947Z,60.45
2024-04-23T20:09:02.695Z,61.22
2024-04-23T20:11:30.134Z,61.41
2024-04-23T20:13:57.784Z,62.22
2024-04-23T20:16:25.088Z,62.82
2024-04-23T20:18:54.591Z,63.65
2024-04-23T20:21:21.913Z,62.50
2024-04-23T20:23:55.809Z,60.81
2024-04-23T20:26:24.106Z,60.75
2024-04-23T20:28:52.936Z,61.05
2024-04-23T20:31:20.247Z,61.55
2024-04-23T20:33:47.526Z,62.27
2024-04-23T20:36:14.891Z,62.90
2024-04-23T20:38:42.887Z,63.69
2024-04-23T20:41:10.349Z,64.32
2024-04-23T20:43:37.868Z,62.97
2024-04-23T20:46:08.356Z,61.22
2024-04-23T20:48:35.994Z,60.66
2024-04-23T20:51:06.534Z,60.98
2024-04-23T20:53:33.785Z,61.67
2024-04-23T20:56:08.320Z,61.74
2024-04-23T20:58:35.817Z,62.59
2024-04-23T21:01:09.779Z,63.18
2024-04-23T21:03:37.600Z,62.02
2024-04-23T21:06:09.836Z,60.68
2024-04-23T21:08:38.311Z,60.43
2024-04-23T21:11:15.913Z,60.64
2024-04-23T21:13:46.892Z,61.24
2024-04-23T21:16:14.568Z,61.87
2024-04-23T21:18:42.454Z,62.28
2024-04-23T21:21:09.753Z,62.64
2024-04-23T21:23:37.129Z,62.72
2024-04-23T21:26:04.664Z,60.88
2024-04-23T21:28:31.980Z,60.06
2024-04-23T21:31:02.361Z,60.51
2024-04-23T21:33:29.687Z,60.92
2024-04-23T21:36:08.272Z,61.40
2024-04-23T21:38:35.972Z,61.83
2024-04-23T21:41:07.243Z,62.10
2024-04-23T21:43:35.376Z,62.50
2024-04-23T21:46:08.975Z,60.81
2024-04-23T21:48:36.568Z,59.85
2024-04-23T21:51:14.673Z,60.50
2024-04-23T21:53:42.097Z,60.61
2024-04-23T21:56:09.958Z,60.88
2024-04-23T21:58:37.765Z,61.46
2024-04-23T22:01:15.160Z,62.14
2024-04-23T22:03:42.851Z,62.05
2024-04-23T22:06:10.969Z,60.58
2024-04-23T22:08:38.641Z,60.09
2024-04-23T22:11:07.848Z,60.05
2024-04-23T22:13:38.289Z,60.49
2024-04-23T22:16:08.673Z,61.08
2024-04-23T22:18:38.215Z,61.51
2024-04-23T22:21:08.306Z,62.35
2024-04-23T22:23:37.926Z,61.14
2024-04-23T22:26:07.779Z,59.75
2024-04-23T22:28:36.844Z,59.56
2024-04-23T22:31:07.311Z,59.95
2024-04-23T22:33:37.888Z,60.35
2024-04-23T22:36:07.894Z,61.28
2024-04-23T22:38:38.355Z,62.01
2024-04-23T22:41:08.435Z,62.83
2024-04-23T22:43:37.800Z,61.78
2024-04-23T22:46:07.763Z,60.42
2024-04-23T22:48:37.942Z,60.64
2024-04-23T22:51:07.035Z,60.99
2024-04-23T22:53:36.694Z,61.59
2024-04-23T22:56:05.862Z,62.67
2024-04-23T22:58:36.395Z,63.62
2024-04-23T23:01:06.438Z,64.44
2024-04-23T23:03:36.426Z,62.85
2024-04-23T23:06:06.009Z,62.39
2024-04-23T23:08:35.792Z,62.66
2024-04-23T23:17:23.337Z,66.51
2024-04-23T23:26:06.118Z,65.63
2024-04-23T23:28:33.417Z,66.37
2024-04-23T23:31:00.762Z,67.75
2024-04-23T23:33:28.326Z,67.48
2024-04-23T23:35:55.783Z,66.48
2024-04-23T23:45:54.411Z,69.12
2024-04-23T23:48:22.853Z,68.21
2024-04-23T23:50:50.250Z,67.08
